createdAt,value
2018-03-03T00:00:29.416Z,-5.60
2018-03-03T00:03:32.719Z,-5.60
2018-03-03T00:06:36.015Z,-5.60
2018-03-03T00:09:39.306Z,-5.60
2018-03-03T00:12:43.336Z,-5.60
2018-03-03T00:15:46.729Z,-5.60
2018-03-03T00:18:50.092Z,-5.50
2018-03-03T00:21:53.850Z,-5.50
2018-03-03T00:24:57.182Z,-5.50
2018-03-03T00:28:00.787Z,-5.60
2018-03-03T00:31:04.076Z,-5.60
2018-03-03T00:34:07.392Z,-5.50
2018-03-03T00:37:10.765Z,-5.50
2018-03-03T00:40:14.829Z,-5.60
2018-03-03T00:43:18.421Z,-5.70
2018-03-03T00:46:21.668Z,-5.60
2018-03-03T00:49:25.769Z,-5.70
2018-03-03T00:52:29.912Z,-5.70
2018-03-03T00:55:33.237Z,-5.70
2018-03-03T00:58:36.502Z,-5.70
2018-03-03T01:01:39.825Z,-5.70
2018-03-03T01:04:43.920Z,-5.70
2018-03-03T01:07:47.304Z,-5.70
2018-03-03T01:10:51.466Z,-5.70
2018-03-03T01:13:54.784Z,-5.70
2018-03-03T01:16:58.091Z,-5.70
2018-03-03T01:20:01.442Z,-5.70
2018-03-03T01:23:04.709Z,-5.70
2018-03-03T01:26:08.016Z,-5.70
2018-03-03T01:29:11.300Z,-5.70
2018-03-03T01:32:15.386Z,-5.70
2018-03-03T01:35:18.703Z,-5.70
2018-03-03T01:38:22.065Z,-5.70
2018-03-03T01:41:25.497Z,-5.70
2018-03-03T01:44:29.599Z,-5.70
2018-03-03T01:47:33.666Z,-5.80
2018-03-03T01:50:37.002Z,-5.80
2018-03-03T01:53:40.748Z,-5.70
2018-03-03T01:56:44.004Z,-5.70
2018-03-03T01:59:47.277Z,-5.70
2018-03-03T02:02:50.557Z,-5.70
2018-03-03T02:05:54.604Z,-5.60
2018-03-03T02:08:57.952Z,-5.60
2018-03-03T02:12:01.272Z,-5.60
2018-03-03T02:15:05.311Z,-5.50
2018-03-03T02:18:08.693Z,-5.50
2018-03-03T02:21:12.008Z,-5.50
2018-03-03T02:24:15.331Z,-5.50
2018-03-03T02:27:18.658Z,-5.40
2018-03-03T02:30:22.770Z,-5.40
2018-03-03T02:33:26.804Z,-5.40
2018-03-03T02:36:30.879Z,-5.40
2018-03-03T02:39:34.323Z,-5.40
2018-03-03T02:42:39.088Z,-5.40
2018-03-03T02:45:42.635Z,-5.40
2018-03-03T02:48:45.904Z,-5.40
2018-03-03T02:51:49.240Z,-5.50
2018-03-03T02:54:52.533Z,-5.50
2018-03-03T02:57:56.584Z,-5.50
2018-03-03T03:00:59.920Z,-5.50
2018-03-03T03:04:03.200Z,-5.50
2018-03-03T03:07:07.275Z,-5.50
2018-03-03T03:10:10.589Z,-5.50
2018-03-03T03:13:13.899Z,-5.50
2018-03-03T03:16:17.226Z,-5.50
2018-03-03T03:19:20.836Z,-5.50
2018-03-03T03:22:24.120Z,-5.40
2018-03-03T03:25:27.463Z,-5.40
2018-03-03T03:28:30.746Z,-5.50
2018-03-03T03:31:34.804Z,-5.40
2018-03-03T03:34:38.058Z,-5.40
2018-03-03T03:37:41.354Z,-5.40
2018-03-03T03:40:44.766Z,-5.40
2018-03-03T03:43:48.069Z,-5.40
2018-03-03T03:46:51.351Z,-5.40
2018-03-03T03:49:54.662Z,-5.40
2018-03-03T03:52:57.929Z,-5.30
2018-03-03T03:56:01.522Z,-5.40
2018-03-03T03:59:04.994Z,-5.40
2018-03-03T04:02:08.310Z,-5.40
2018-03-03T04:05:12.432Z,-5.40
2018-03-03T04:08:15.734Z,-5.40
2018-03-03T04:11:18.999Z,-5.40
2018-03-03T04:14:22.274Z,-5.50
2018-03-03T04:17:25.613Z,-5.50
2018-03-03T04:20:28.895Z,-5.50
2018-03-03T04:23:32.178Z,-5.50
2018-03-03T04:26:35.633Z,-5.60
2018-03-03T04:29:38.903Z,-5.60
2018-03-03T04:32:42.251Z,-5.60
2018-03-03T04:35:45.833Z,-5.60
2018-03-03T04:38:49.189Z,-5.60
2018-03-03T04:41:52.451Z,-5.70
2018-03-03T04:44:55.683Z,-5.70
2018-03-03T04:47:58.937Z,-5.60
2018-03-03T04:51:02.297Z,-5.60
2018-03-03T04:54:05.668Z,-5.70
2018-03-03T04:57:08.903Z,-5.70
2018-03-03T05:00:18.738Z,-5.80
2018-03-03T05:03:38.519Z,-5.80
2018-03-03T05:10:28.109Z,-5.80
2018-03-03T05:13:35.005Z,-5.80
2018-03-03T05:16:52.174Z,-5.80
2018-03-03T05:20:00.967Z,-5.70
2018-03-03T05:23:10.594Z,-5.70
2018-03-03T05:26:20.340Z,-5.60
2018-03-03T05:29:29.267Z,-5.60
2018-03-03T05:32:36.561Z,-5.60
2018-03-03T05:39:26.554Z,-5.60
2018-03-03T05:42:48.757Z,-5.60
2018-03-03T05:46:09.792Z,-5.60
2018-03-03T05:49:18.737Z,-5.60
2018-03-03T05:52:27.778Z,-5.70
2018-03-03T05:55:51.949Z,-5.70
2018-03-03T06:02:37.942Z,-5.90
2018-03-03T06:05:58.108Z,-6.00
2018-03-03T06:09:02.230Z,-6.10
2018-03-03T06:12:05.630Z,-6.10
2018-03-03T06:15:08.977Z,-6.30
2018-03-03T06:18:12.294Z,-6.40
2018-03-03T06:21:15.650Z,-6.40
2018-03-03T06:24:19.042Z,-6.50
2018-03-03T06:27:22.711Z,-6.50
2018-03-03T06:30:25.966Z,-6.60
2018-03-03T06:33:29.552Z,-6.70
2018-03-03T06:36:32.815Z,-6.80
2018-03-03T06:39:36.114Z,-6.70
2018-03-03T06:42:39.425Z,-6.60
2018-03-03T06:45:42.961Z,-6.50
2018-03-03T06:48:46.275Z,-6.60
2018-03-03T06:51:49.992Z,-6.50
2018-03-03T06:54:53.287Z,-6.50
2018-03-03T06:57:56.606Z,-6.50
2018-03-03T07:00:59.950Z,-6.40
2018-03-03T07:04:03.213Z,-6.40
2018-03-03T07:07:06.611Z,-6.40
2018-03-03T07:10:10.642Z,-6.50
2018-03-03T07:13:13.950Z,-6.50
2018-03-03T07:16:17.389Z,-6.60
2018-03-03T07:19:21.467Z,-6.60
2018-03-03T07:22:24.898Z,-6.60
2018-03-03T07:25:28.153Z,-6.50
2018-03-03T07:28:31.642Z,-6.30
2018-03-03T07:31:35.939Z,-6.30
2018-03-03T07:34:40.110Z,-6.20
2018-03-03T07:37:43.503Z,-6.20
2018-03-03T07:40:46.792Z,-6.10
2018-03-03T07:43:50.086Z,-6.10
2018-03-03T07:46:53.703Z,-6.10
2018-03-03T07:49:57.231Z,-6.20
2018-03-03T07:53:00.747Z,-6.10
2018-03-03T07:56:04.881Z,-5.90
2018-03-03T07:59:08.326Z,-5.90
2018-03-03T08:02:12.552Z,-6.00
2018-03-03T08:05:16.086Z,-6.00
2018-03-03T08:08:19.496Z,-6.30
2018-03-03T08:11:23.475Z,-6.20
2018-03-03T08:14:26.920Z,-6.00
2018-03-03T08:17:30.565Z,-6.10
2018-03-03T08:20:34.092Z,-6.00
2018-03-03T08:23:37.499Z,-6.10
2018-03-03T08:26:41.016Z,-6.20
2018-03-03T08:29:44.434Z,-6.20
2018-03-03T08:32:47.878Z,-6.20
2018-03-03T08:35:52.094Z,-5.80
2018-03-03T08:38:55.529Z,-5.80
2018-03-03T08:41:58.992Z,-5.70
2018-03-03T08:45:02.497Z,-5.90
2018-03-03T08:48:06.686Z,-5.50
2018-03-03T08:51:10.087Z,-5.50
2018-03-03T08:54:13.509Z,-5.80
2018-03-03T08:57:17.792Z,-5.60
2018-03-03T09:00:21.142Z,-5.60
2018-03-03T09:03:24.486Z,-5.60
2018-03-03T09:06:27.964Z,-5.50
2018-03-03T09:09:31.435Z,-5.60
2018-03-03T09:12:34.874Z,-5.40
2018-03-03T09:15:38.258Z,-5.50
2018-03-03T09:18:42.642Z,-5.40
2018-03-03T09:21:46.206Z,-5.40
2018-03-03T09:24:49.565Z,-5.20
2018-03-03T09:27:52.859Z,-5.30
2018-03-03T09:30:56.209Z,-5.20
2018-03-03T09:33:59.694Z,-5.10
2018-03-03T09:37:02.999Z,-5.10
2018-03-03T09:40:06.641Z,-5.00
2018-03-03T09:43:10.814Z,-4.90
2018-03-03T09:46:14.216Z,-4.90
2018-03-03T09:49:18.473Z,-4.90
2018-03-03T09:52:21.910Z,-5.00
2018-03-03T09:55:26.047Z,-5.10
2018-03-03T09:58:30.137Z,-5.10
2018-03-03T10:01:34.090Z,-5.10
2018-03-03T10:04:38.336Z,-4.70
2018-03-03T10:07:42.071Z,-4.70
2018-03-03T10:10:46.318Z,-4.80
2018-03-03T10:13:49.740Z,-4.90
2018-03-03T10:16:53.150Z,-4.70
2018-03-03T10:19:56.637Z,-4.30
2018-03-03T10:23:00.114Z,-4.20
2018-03-03T10:26:03.570Z,-4.70
2018-03-03T10:29:07.003Z,-4.80
2018-03-03T10:32:11.134Z,-4.50
2018-03-03T10:35:14.657Z,-4.50
2018-03-03T10:38:18.038Z,-4.40
2018-03-03T10:41:21.460Z,-4.30
2018-03-03T10:44:24.944Z,-4.10
2018-03-03T10:47:28.693Z,-3.80
2018-03-03T10:50:33.012Z,-3.90
2018-03-03T10:53:36.409Z,-3.60
2018-03-03T10:56:39.808Z,-3.10
2018-03-03T10:59:43.340Z,-2.80
2018-03-03T11:02:46.736Z,-2.90
2018-03-03T11:05:50.843Z,-2.90
2018-03-03T11:08:55.120Z,-3.00
2018-03-03T11:11:58.524Z,-3.00
2018-03-03T11:15:01.879Z,-2.80
2018-03-03T11:18:05.271Z,-2.90
2018-03-03T11:21:08.726Z,-2.50
2018-03-03T11:24:12.177Z,-2.30
2018-03-03T11:27:17.971Z,-2.80
2018-03-03T11:30:23.061Z,-2.80
2018-03-03T11:33:28.332Z,-2.90
2018-03-03T11:36:32.919Z,-2.90
2018-03-03T11:39:36.426Z,-2.90
2018-03-03T11:42:40.751Z,-2.90
2018-03-03T11:45:44.326Z,-2.90
2018-03-03T11:48:47.807Z,-2.90
2018-03-03T11:51:51.280Z,-3.00
2018-03-03T11:54:54.685Z,-2.80
2018-03-03T11:57:58.162Z,-2.90
2018-03-03T12:01:01.669Z,-2.90
2018-03-03T12:04:06.584Z,-2.90
2018-03-03T12:07:12.510Z,-2.90
2018-03-03T12:10:16.670Z,-2.90
2018-03-03T12:13:22.846Z,-3.10
2018-03-03T12:16:27.775Z,-3.10
2018-03-03T12:19:34.289Z,-2.80
2018-03-03T12:22:38.535Z,-2.70
2018-03-03T12:25:42.478Z,-2.70
2018-03-03T12:28:45.976Z,-2.80
2018-03-03T12:31:50.548Z,-2.60
2018-03-03T12:34:55.867Z,-2.60
2018-03-03T12:37:59.350Z,-2.60
2018-03-03T12:41:03.570Z,-2.90
2018-03-03T12:44:07.841Z,-2.90
2018-03-03T12:47:11.342Z,-2.90
2018-03-03T12:50:15.595Z,-2.60
2018-03-03T12:53:23.919Z,-2.60
2018-03-03T12:56:28.833Z,-2.60
2018-03-03T12:59:32.292Z,-2.60
2018-03-03T13:02:35.798Z,-2.70
2018-03-03T13:05:39.259Z,-2.70
2018-03-03T13:08:42.814Z,-2.70
2018-03-03T13:11:46.257Z,-2.60
2018-03-03T13:14:49.744Z,-2.50
2018-03-03T13:17:53.294Z,-2.40
2018-03-03T13:20:57.615Z,-2.60
2018-03-03T13:24:01.171Z,-2.60
2018-03-03T13:27:05.447Z,-2.50
2018-03-03T13:30:09.763Z,-2.60
2018-03-03T13:33:13.235Z,-2.60
2018-03-03T13:36:17.444Z,-2.50
2018-03-03T13:39:20.987Z,-2.50
2018-03-03T13:42:24.481Z,-2.50
2018-03-03T13:45:28.011Z,-2.50
2018-03-03T13:48:31.391Z,-2.40
2018-03-03T13:51:34.846Z,-2.50
2018-03-03T13:54:38.290Z,-2.70
2018-03-03T13:57:41.784Z,-2.80
2018-03-03T14:00:45.184Z,-2.70
2018-03-03T14:03:48.670Z,-2.70
2018-03-03T14:06:52.156Z,-2.70
2018-03-03T14:09:55.520Z,-2.70
2018-03-03T14:12:59.758Z,-2.90
2018-03-03T14:16:03.878Z,-2.90
2018-03-03T14:19:07.290Z,-2.90
2018-03-03T14:22:10.745Z,-2.90
2018-03-03T14:25:14.180Z,-2.90
2018-03-03T14:28:18.442Z,-2.90
2018-03-03T14:31:21.853Z,-2.90
2018-03-03T14:34:28.225Z,-3.00
2018-03-03T14:37:31.630Z,-2.90
2018-03-03T14:40:34.966Z,-2.90
2018-03-03T14:43:38.264Z,-2.80
2018-03-03T14:46:42.598Z,-2.80
2018-03-03T14:49:45.968Z,-2.80
2018-03-03T14:52:50.295Z,-2.80
2018-03-03T14:55:53.603Z,-2.80
2018-03-03T14:58:57.715Z,-2.80
2018-03-03T15:02:01.897Z,-2.80
2018-03-03T15:05:05.272Z,-2.80
2018-03-03T15:08:08.609Z,-2.70
2018-03-03T15:11:12.009Z,-2.50
2018-03-03T15:14:15.359Z,-2.40
2018-03-03T15:17:18.843Z,-2.40
2018-03-03T15:20:22.338Z,-2.40
2018-03-03T15:23:25.705Z,-2.30
2018-03-03T15:26:30.018Z,-2.40
2018-03-03T15:29:33.437Z,-2.40
2018-03-03T15:32:36.851Z,-2.40
2018-03-03T15:35:40.437Z,-2.30
2018-03-03T15:38:43.850Z,-2.50
2018-03-03T15:41:47.207Z,-2.60
2018-03-03T15:44:50.571Z,-2.60
2018-03-03T15:47:54.016Z,-2.60
2018-03-03T15:50:57.299Z,-2.50
2018-03-03T15:54:00.636Z,-2.50
2018-03-03T15:57:04.029Z,-2.50
2018-03-03T16:00:07.413Z,-2.40
2018-03-03T16:03:10.830Z,-2.40
2018-03-03T16:06:14.212Z,-2.30
2018-03-03T16:09:17.580Z,-2.50
2018-03-03T16:12:21.026Z,-2.50
2018-03-03T16:15:24.386Z,-2.50
2018-03-03T16:18:27.756Z,-2.50
2018-03-03T16:21:31.216Z,-2.50
2018-03-03T16:24:34.591Z,-2.50
2018-03-03T16:27:37.933Z,-2.50
2018-03-03T16:30:42.133Z,-2.40
2018-03-03T16:33:47.058Z,-2.40
2018-03-03T16:36:50.405Z,-2.40
2018-03-03T16:39:54.498Z,-2.50
2018-03-03T16:42:58.619Z,-2.50
2018-03-03T16:46:02.041Z,-2.60
2018-03-03T16:49:05.433Z,-2.60
2018-03-03T16:52:08.736Z,-2.60
2018-03-03T16:55:12.831Z,-2.70
2018-03-03T16:58:16.988Z,-2.70
2018-03-03T17:01:21.261Z,-2.70
2018-03-03T17:04:25.126Z,-2.70
2018-03-03T17:07:28.609Z,-2.70
2018-03-03T17:10:32.659Z,-2.70
2018-03-03T17:13:36.021Z,-2.70
2018-03-03T17:16:39.378Z,-2.70
2018-03-03T17:19:43.600Z,-2.70
2018-03-03T17:22:46.935Z,-2.70
2018-03-03T17:25:50.331Z,-2.80
2018-03-03T17:28:53.696Z,-2.80
2018-03-03T17:31:57.045Z,-2.70
2018-03-03T17:35:00.397Z,-2.70
2018-03-03T17:38:04.543Z,-2.90
2018-03-03T17:41:08.929Z,-2.90
2018-03-03T17:44:12.308Z,-3.00
2018-03-03T17:47:15.699Z,-3.10
2018-03-03T17:50:19.097Z,-3.20
2018-03-03T17:53:22.538Z,-3.20
2018-03-03T17:56:26.015Z,-3.20
2018-03-03T17:59:29.509Z,-3.30
2018-03-03T18:02:33.092Z,-3.30
2018-03-03T18:05:36.494Z,-3.30
2018-03-03T18:08:39.859Z,-3.40
2018-03-03T18:11:58.998Z,-3.50
2018-03-03T18:15:03.142Z,-3.50
2018-03-03T18:18:06.479Z,-3.60
2018-03-03T18:21:09.831Z,-3.60
2018-03-03T18:24:38.933Z,-3.60
2018-03-03T18:27:43.282Z,-3.60
2018-03-03T18:30:47.689Z,-3.60
2018-03-03T18:33:51.088Z,-3.60
2018-03-03T18:36:54.563Z,-3.70
2018-03-03T18:39:57.913Z,-3.70
2018-03-03T18:43:01.386Z,-3.70
2018-03-03T18:46:04.837Z,-3.70
2018-03-03T18:49:08.186Z,-3.70
2018-03-03T18:52:11.606Z,-3.80
2018-03-03T18:55:15.012Z,-3.70
2018-03-03T18:58:18.382Z,-3.70
2018-03-03T19:01:21.823Z,-3.70
2018-03-03T19:04:25.157Z,-3.80
2018-03-03T19:07:29.049Z,-3.80
2018-03-03T19:10:33.193Z,-3.90
2018-03-03T19:13:37.658Z,-3.90
2018-03-03T19:16:41.053Z,-3.90
2018-03-03T19:19:44.374Z,-3.90
2018-03-03T19:22:47.886Z,-3.90
2018-03-03T19:25:51.237Z,-3.90
2018-03-03T19:28:54.660Z,-3.90
2018-03-03T19:31:57.957Z,-4.00
2018-03-03T19:35:01.270Z,-3.90
2018-03-03T19:38:04.574Z,-4.00
2018-03-03T19:41:07.902Z,-4.00
2018-03-03T19:44:11.258Z,-4.00
2018-03-03T19:47:14.605Z,-4.00
2018-03-03T19:50:17.854Z,-4.10
2018-03-03T19:53:21.207Z,-4.10
2018-03-03T19:56:25.272Z,-4.10
2018-03-03T19:59:28.661Z,-4.10
2018-03-03T20:02:32.253Z,-4.10
2018-03-03T20:05:35.555Z,-4.20
2018-03-03T20:08:38.921Z,-4.20
2018-03-03T20:11:42.546Z,-4.20
2018-03-03T20:14:45.989Z,-4.20
2018-03-03T20:17:49.537Z,-4.20
2018-03-03T20:20:53.266Z,-4.20
2018-03-03T20:23:57.012Z,-4.20
2018-03-03T20:27:00.446Z,-4.20
2018-03-03T20:30:04.090Z,-4.20
2018-03-03T20:33:07.521Z,-4.10
2018-03-03T20:36:10.840Z,-4.10
2018-03-03T20:39:14.149Z,-4.00
2018-03-03T20:42:17.518Z,-4.00
2018-03-03T20:45:21.615Z,-3.90
2018-03-03T20:48:24.921Z,-4.00
2018-03-03T20:51:29.020Z,-3.90
2018-03-03T20:54:32.353Z,-3.90
2018-03-03T20:57:36.558Z,-3.80
2018-03-03T21:00:40.102Z,-3.90
2018-03-03T21:03:43.874Z,-3.80
2018-03-03T21:06:48.069Z,-3.90
2018-03-03T21:09:52.428Z,-4.00
2018-03-03T21:12:55.858Z,-4.00
2018-03-03T21:15:59.367Z,-3.80
2018-03-03T21:19:03.522Z,-3.90
2018-03-03T21:22:06.815Z,-3.90
2018-03-03T21:25:10.874Z,-4.00
2018-03-03T21:28:14.178Z,-4.00
2018-03-03T21:31:17.970Z,-4.00
2018-03-03T21:34:21.295Z,-4.00
2018-03-03T21:37:24.663Z,-4.00
2018-03-03T21:40:28.727Z,-4.10
2018-03-03T21:43:32.031Z,-4.10
2018-03-03T21:46:35.680Z,-4.10
2018-03-03T21:49:39.080Z,-4.00
2018-03-03T21:52:42.581Z,-4.10
2018-03-03T21:55:45.887Z,-4.00
2018-03-03T21:58:49.228Z,-4.10
2018-03-03T22:01:53.350Z,-4.20
2018-03-03T22:04:56.740Z,-4.20
2018-03-03T22:08:00.993Z,-4.20
2018-03-03T22:11:04.385Z,-4.20
2018-03-03T22:14:08.462Z,-4.20
2018-03-03T22:17:11.772Z,-4.20
2018-03-03T22:20:15.103Z,-4.20
2018-03-03T22:23:18.423Z,-4.30
2018-03-03T22:26:21.782Z,-4.30
2018-03-03T22:29:25.882Z,-4.30
2018-03-03T22:32:29.446Z,-4.30
2018-03-03T22:35:32.955Z,-4.30
2018-03-03T22:38:36.309Z,-4.30
2018-03-03T22:41:39.709Z,-4.40
2018-03-03T22:44:43.083Z,-4.40
2018-03-03T22:47:46.387Z,-4.40
2018-03-03T22:50:49.762Z,-4.40
2018-03-03T22:53:53.854Z,-4.50
2018-03-03T22:56:57.145Z,-4.50
2018-03-03T23:00:00.716Z,-4.40
2018-03-03T23:03:05.864Z,-4.40
2018-03-03T23:06:09.445Z,-4.50
2018-03-03T23:09:12.834Z,-4.50
2018-03-03T23:12:16.169Z,-4.50
2018-03-03T23:15:19.588Z,-4.60
2018-03-03T23:18:22.963Z,-4.60
2018-03-03T23:21:27.172Z,-4.80
2018-03-03T23:24:30.573Z,-4.80
2018-03-03T23:27:34.769Z,-4.80
2018-03-03T23:30:38.180Z,-4.80
2018-03-03T23:33:42.334Z,-4.90
2018-03-03T23:36:45.632Z,-4.90
2018-03-03T23:39:48.949Z,-4.90
2018-03-03T23:42:52.260Z,-5.00
2018-03-03T23:45:55.526Z,-5.00
2018-03-03T23:48:58.838Z,-5.00
2018-03-03T23:52:02.127Z,-5.00
2018-03-03T23:55:05.464Z,-4.90
2018-03-03T23:58:08.686Z,-5.00
